East Monroe, Ohio
Current Conditions -  °F | °C
As of 6:54 AM on Sunday 21 Dec 2014 (Local Time) from KILN Reporting Station
Haze Haze  
Wind Chill: 22°   Ceiling: 1900
Heat Index: 22°   Visibility: 3mi
Dew Point: 19°   Wind: 0mph
Humidity: 89%   Direction: NA
Pressure: 30.3"   Gusts: NA
Location:  39.3503°N, 83.5434°W
Report Text: KILN 211154Z AUTO 00000KT 3SM BR BKN019 M06/M07 A3030 RMK AO2 SLP294 I1000 I6001 T10561072 11044 21061 51009
Loading
Personal Weather Stations






























Interactive Weather Map New forecast layout! Learn more

10-Day Weather Forecast

Advertisements
Track Severe Weather on mobile